Terminal Aerodrome Forecast
Issued by NWS

Home | Current Version | Previous Version | Text Only | Print | Product List | Glossary On
Versions: 1 2 3 4 5 6 7 8 9 10 11 12 13 14 15 16 17
000
FTUS43 KGRB 290330 AAA
TAFAUW
TAF AMD
KAUW 290330Z 2904/2924 17008G14KT P6SM SCT010 OVC050
      TEMPO 2904/2907 5SM BR SCT009 BKN015
     FM290700 13003KT 5SM BR SCT004 OVC008
      TEMPO 2909/2913 2SM BR BKN004
     FM291500 06004KT 5SM BR OVC008
     FM291800 18005KT P6SM FEW015 BKN050=

USA.gov is the U.S. government's official web portal to all federal, state and local government web resources and services.